createdAt,value
2016-10-17T00:00:05.800Z,37.38
2016-10-17T00:01:05.498Z,37.1
2016-10-17T00:02:05.864Z,37.1
2016-10-17T00:03:05.822Z,37.1
2016-10-17T00:04:05.517Z,37.19
2016-10-17T00:05:05.833Z,37.29
2016-10-17T00:06:05.855Z,37.19
2016-10-17T00:07:05.897Z,37.08
2016-10-17T00:08:05.855Z,37.38
2016-10-17T00:09:05.856Z,37.38
2016-10-17T00:10:05.552Z,37.29
2016-10-17T00:11:05.871Z,37.19
2016-10-17T00:12:05.615Z,37.1
2016-10-17T00:13:05.935Z,37.38
2016-10-17T00:14:05.578Z,37.27
2016-10-17T00:15:05.897Z,37.19
2016-10-17T00:16:05.971Z,37.1
2016-10-17T00:17:06.159Z,37.19
2016-10-17T00:18:05.603Z,37.19
2016-10-17T00:19:05.924Z,37.29
2016-10-17T00:20:05.928Z,37.19
2016-10-17T00:21:05.986Z,37.19
2016-10-17T00:22:05.941Z,37.38
2016-10-17T00:23:05.635Z,37.29
2016-10-17T00:24:05.645Z,37.1
2016-10-17T00:25:05.962Z,37.1
2016-10-17T00:26:05.966Z,37.29
2016-10-17T00:27:05.661Z,37.29
2016-10-17T00:28:06.029Z,37.29
2016-10-17T00:29:05.674Z,37.29
2016-10-17T00:30:06.045Z,37.19
2016-10-17T00:31:05.685Z,37.29
2016-10-17T00:32:05.695Z,37.1
2016-10-17T00:33:06.014Z,37.1
2016-10-17T00:34:05.759Z,37.38
2016-10-17T00:35:05.715Z,37.38
2016-10-17T00:36:05.769Z,37.27
2016-10-17T00:37:06.039Z,37.29
2016-10-17T00:38:05.732Z,37.19
2016-10-17T00:39:06.052Z,37.19
2016-10-17T00:40:06.059Z,37.1
2016-10-17T00:41:05.751Z,37.19
2016-10-17T00:42:06.072Z,37.19
2016-10-17T00:43:05.813Z,37.19
2016-10-17T00:44:06.085Z,37.19
2016-10-17T00:45:06.091Z,37.29
2016-10-17T00:46:06.097Z,37.17
2016-10-17T00:47:06.105Z,37.19
2016-10-17T00:48:06.110Z,37.19
2016-10-17T00:49:05.853Z,37.27
2016-10-17T00:50:06.125Z,37.17
2016-10-17T00:51:05.815Z,37.19
2016-10-17T00:52:06.194Z,37.17
2016-10-17T00:53:06.143Z,37.37
2016-10-17T00:54:05.887Z,37.19
2016-10-17T00:55:05.892Z,37.19
2016-10-17T00:56:05.849Z,37.17
2016-10-17T00:57:06.170Z,37.27
2016-10-17T00:58:06.178Z,36.98
2016-10-17T00:59:06.181Z,37.17
2016-10-17T01:00:06.189Z,37.1
2016-10-17T01:01:06.192Z,37.37
2016-10-17T01:02:06.265Z,37.1
2016-10-17T01:03:05.896Z,37.19
2016-10-17T01:04:05.904Z,37.17
2016-10-17T01:05:05.910Z,37.17
2016-10-17T01:06:05.966Z,37.27
2016-10-17T01:07:06.285Z,37.1
2016-10-17T01:08:05.983Z,37.08
2016-10-17T01:09:05.937Z,37.19
2016-10-17T01:10:06.258Z,37.29
2016-10-17T01:11:06.262Z,37.1
2016-10-17T01:12:06.317Z,37.17
2016-10-17T01:13:06.276Z,37.1
2016-10-17T01:14:06.282Z,37.08
2016-10-17T01:15:06.025Z,37.08
2016-10-17T01:16:06.295Z,37.19
2016-10-17T01:17:05.987Z,37.08
2016-10-17T01:18:06.358Z,37.17
2016-10-17T01:19:06.053Z,36.98
2016-10-17T01:20:06.321Z,37.08
2016-10-17T01:21:06.328Z,37.19
2016-10-17T01:22:06.333Z,37.27
2016-10-17T01:23:06.104Z,37.1
2016-10-17T01:24:06.346Z,36.98
2016-10-17T01:25:06.042Z,37.19
2016-10-17T01:26:06.048Z,37.27
2016-10-17T01:27:06.421Z,37.19
2016-10-17T01:28:06.113Z,37.19
2016-10-17T01:29:06.377Z,37.19
2016-10-17T01:30:06.390Z,37
2016-10-17T01:31:06.088Z,36.9
2016-10-17T01:32:06.091Z,36.98
2016-10-17T01:33:06.406Z,37.17
2016-10-17T01:34:06.150Z,36.88
2016-10-17T01:35:06.471Z,37.17
2016-10-17T01:36:06.112Z,36.9
2016-10-17T01:37:06.434Z,37.1
2016-10-17T01:38:06.439Z,37.17
2016-10-17T01:39:06.183Z,36.8
2016-10-17T01:40:06.138Z,37.1
2016-10-17T01:41:06.195Z,37.19
2016-10-17T01:42:06.466Z,37.17
2016-10-17T01:43:06.473Z,37.1
2016-10-17T01:44:06.165Z,36.9
2016-10-17T01:45:06.421Z,37.19
2016-10-17T01:46:06.178Z,37.1
2016-10-17T01:47:06.184Z,37
2016-10-17T01:48:06.191Z,36.9
2016-10-17T01:49:06.509Z,36.79
2016-10-17T01:50:06.517Z,37.1
2016-10-17T01:51:06.209Z,36.59
2016-10-17T01:52:06.215Z,36.8
2016-10-17T01:53:06.536Z,36.8
2016-10-17T01:54:06.229Z,36.9
2016-10-17T01:55:06.549Z,37
2016-10-17T01:56:06.554Z,36.59
2016-10-17T01:57:06.562Z,37
2016-10-17T01:58:06.570Z,36.8
2016-10-17T01:59:06.631Z,36.69
2016-10-17T02:00:06.267Z,36.71
2016-10-17T02:01:06.587Z,36.8
2016-10-17T02:02:06.286Z,36.8
2016-10-17T02:03:06.603Z,36.71
2016-10-17T02:04:06.609Z,36.71
2016-10-17T02:05:06.456Z,36.71
2016-10-17T02:06:06.625Z,36.8
2016-10-17T02:07:06.677Z,36.8
2016-10-17T02:08:06.684Z,36.71
2016-10-17T02:09:06.329Z,36.71
2016-10-17T02:10:06.334Z,36.71
2016-10-17T02:11:06.705Z,36.8
2016-10-17T02:12:06.662Z,36.8
2016-10-17T02:13:06.354Z,36.9
2016-10-17T02:14:06.673Z,36.9
2016-10-17T02:15:06.682Z,36.9
2016-10-17T02:16:06.687Z,36.71
2016-10-17T02:17:06.693Z,36.8
2016-10-17T02:18:06.387Z,36.9
2016-10-17T02:19:06.707Z,36.9
2016-10-17T02:20:06.713Z,36.71
2016-10-17T02:21:06.406Z,36.9
2016-10-17T02:22:06.734Z,36.8
2016-10-17T02:23:06.735Z,36.8
2016-10-17T02:24:06.739Z,36.8
2016-10-17T02:25:06.798Z,36.8
2016-10-17T02:26:06.493Z,36.9
2016-10-17T02:27:06.499Z,36.8
2016-10-17T02:28:06.793Z,36.8
2016-10-17T02:29:06.461Z,36.8
2016-10-17T02:30:06.796Z,36.8
2016-10-17T02:31:06.785Z,36.8
2016-10-17T02:32:06.482Z,36.8
2016-10-17T02:33:06.801Z,36.71
2016-10-17T02:34:06.511Z,36.8
2016-10-17T02:35:06.815Z,36.9
2016-10-17T02:36:06.821Z,36.71
2016-10-17T02:37:06.828Z,36.8
2016-10-17T02:38:06.835Z,36.61
2016-10-17T02:39:06.528Z,36.8
2016-10-17T02:40:06.900Z,36.71
2016-10-17T02:41:06.857Z,36.8
2016-10-17T02:42:06.600Z,36.88
2016-10-17T02:43:06.918Z,36.8
2016-10-17T02:44:06.563Z,36.8
2016-10-17T02:45:06.882Z,36.9
2016-10-17T02:46:06.896Z,36.8
2016-10-17T02:47:06.896Z,36.8
2016-10-17T02:48:06.593Z,36.8
2016-10-17T02:49:06.595Z,36.8
2016-10-17T02:50:06.919Z,36.71
2016-10-17T02:51:06.610Z,36.8
2016-10-17T02:52:06.939Z,36.71
2016-10-17T02:53:06.937Z,36.9
2016-10-17T02:54:06.628Z,36.71
2016-10-17T02:55:06.688Z,36.8
2016-10-17T02:56:06.646Z,36.8
2016-10-17T02:57:06.700Z,36.8
2016-10-17T02:58:06.970Z,36.9
2016-10-17T02:59:06.713Z,36.79
2016-10-17T03:00:06.669Z,36.8
2016-10-17T03:01:06.991Z,36.79
2016-10-17T03:02:06.684Z,36.8
2016-10-17T03:03:07.004Z,36.79
2016-10-17T03:04:06.698Z,36.9
2016-10-17T03:05:06.716Z,36.88
2016-10-17T03:06:06.710Z,36.8
2016-10-17T03:07:06.717Z,36.9
2016-10-17T03:08:07.036Z,36.71
2016-10-17T03:09:07.045Z,36.88
2016-10-17T03:10:06.736Z,36.69
2016-10-17T03:11:07.054Z,36.8
2016-10-17T03:12:06.748Z,36.71
2016-10-17T03:13:06.757Z,36.71
2016-10-17T03:14:07.078Z,36.79
2016-10-17T03:15:06.824Z,36.71
2016-10-17T03:16:06.775Z,36.79
2016-10-17T03:17:07.096Z,36.9
2016-10-17T03:18:07.102Z,36.88
2016-10-17T03:19:07.159Z,36.9
2016-10-17T03:20:07.116Z,36.9
2016-10-17T03:21:06.812Z,36.69
2016-10-17T03:22:07.127Z,37
2016-10-17T03:23:07.136Z,36.71
2016-10-17T03:24:06.878Z,36.8
2016-10-17T03:25:06.836Z,36.9
2016-10-17T03:26:07.155Z,36.9
2016-10-17T03:27:07.162Z,36.69
2016-10-17T03:28:06.855Z,36.9
2016-10-17T03:29:07.173Z,36.71
2016-10-17T03:30:06.919Z,36.8
2016-10-17T03:31:07.189Z,36.69
2016-10-17T03:32:06.934Z,36.98
2016-10-17T03:33:07.200Z,36.71
2016-10-17T03:34:07.209Z,36.79
2016-10-17T03:35:07.214Z,36.88
2016-10-17T03:36:06.913Z,36.71
2016-10-17T03:37:06.923Z,36.69
2016-10-17T03:38:07.235Z,36.71
2016-10-17T03:39:06.931Z,36.88
2016-10-17T03:40:07.247Z,36.79
2016-10-17T03:41:07.240Z,36.98
2016-10-17T03:42:07.262Z,36.79
2016-10-17T03:43:07.267Z,36.8
2016-10-17T03:44:06.961Z,36.69
2016-10-17T03:45:07.280Z,36.79
2016-10-17T03:46:06.974Z,36.79
2016-10-17T03:47:07.344Z,36.8
2016-10-17T03:48:06.986Z,36.69
2016-10-17T03:49:07.306Z,36.79
2016-10-17T03:50:07.314Z,36.79
2016-10-17T03:51:07.319Z,36.79
2016-10-17T03:52:07.013Z,36.79
2016-10-17T03:53:07.020Z,36.88
2016-10-17T03:54:07.339Z,36.69
2016-10-17T03:55:07.032Z,36.88
2016-10-17T03:56:07.038Z,36.88
2016-10-17T03:57:07.047Z,36.88
2016-10-17T03:58:07.054Z,36.88
2016-10-17T03:59:07.373Z,36.9
2016-10-17T04:00:07.066Z,36.88
2016-10-17T04:01:07.384Z,36.79
2016-10-17T04:02:07.443Z,36.69
2016-10-17T04:03:07.087Z,36.8
2016-10-17T04:04:07.341Z,36.71
2016-10-17T04:05:07.412Z,36.69
2016-10-17T04:06:07.419Z,36.59
2016-10-17T04:07:07.110Z,36.8
2016-10-17T04:08:07.118Z,36.52
2016-10-17T04:09:07.175Z,36.61
2016-10-17T04:10:07.130Z,36.8
2016-10-17T04:11:07.138Z,36.52
2016-10-17T04:12:07.456Z,36.71
2016-10-17T04:13:07.461Z,36.8
2016-10-17T04:14:07.158Z,36.52
2016-10-17T04:15:07.165Z,36.52
2016-10-17T04:16:07.485Z,36.52
2016-10-17T04:17:07.178Z,36.42
2016-10-17T04:18:07.185Z,36.71
2016-10-17T04:19:07.504Z,36.71
2016-10-17T04:20:07.513Z,36.71
2016-10-17T04:21:07.569Z,36.42
2016-10-17T04:22:07.524Z,36.42
2016-10-17T04:23:07.580Z,36.71
2016-10-17T04:24:07.225Z,36.3
2016-10-17T04:25:07.596Z,36.61
2016-10-17T04:26:07.552Z,36.42
2016-10-17T04:27:07.296Z,36.42
2016-10-17T04:28:07.249Z,36.42
2016-10-17T04:29:07.258Z,36.71
2016-10-17T04:30:07.580Z,36.61
2016-10-17T04:31:07.586Z,36.32
2016-10-17T04:32:07.590Z,36.52
2016-10-17T04:33:07.599Z,36.42
2016-10-17T04:34:07.291Z,36.52
2016-10-17T04:35:07.609Z,36.42
2016-10-17T04:36:07.613Z,36.42
2016-10-17T04:37:07.674Z,36.42
2016-10-17T04:38:07.631Z,36.42
2016-10-17T04:39:07.373Z,36.61
2016-10-17T04:40:07.641Z,36.71
2016-10-17T04:41:07.648Z,36.42
2016-10-17T04:42:07.344Z,36.42
2016-10-17T04:43:07.348Z,36.61
2016-10-17T04:44:07.355Z,36.61
2016-10-17T04:45:07.676Z,36.42
2016-10-17T04:46:07.682Z,36.52
2016-10-17T04:47:07.688Z,36.32
2016-10-17T04:48:07.695Z,36.52
2016-10-17T04:49:07.389Z,36.32
2016-10-17T04:50:07.712Z,36.52
2016-10-17T04:51:07.715Z,36.52
2016-10-17T04:52:07.414Z,36.42
2016-10-17T04:53:07.727Z,36.52
2016-10-17T04:54:07.783Z,36.42
2016-10-17T04:55:07.749Z,36.61
2016-10-17T04:56:07.795Z,36.42
2016-10-17T04:57:07.440Z,36.52
2016-10-17T04:58:07.760Z,36.42
2016-10-17T04:59:07.766Z,36.61
2016-10-17T05:00:07.821Z,36.61
2016-10-17T05:01:07.780Z,36.42
2016-10-17T05:02:07.786Z,36.71
2016-10-17T05:03:07.842Z,36.61
2016-10-17T05:04:07.485Z,36.52
2016-10-17T05:05:07.541Z,36.52
2016-10-17T05:06:07.810Z,36.42
2016-10-17T05:07:07.506Z,36.4
2016-10-17T05:08:07.510Z,36.61
2016-10-17T05:09:07.517Z,36.52
2016-10-17T05:10:07.837Z,36.61
2016-10-17T05:11:07.845Z,36.61
2016-10-17T05:12:07.585Z,36.61
2016-10-17T05:13:07.544Z,36.61
2016-10-17T05:14:07.550Z,36.42
2016-10-17T05:15:07.870Z,36.52
2016-10-17T05:16:07.564Z,36.42
2016-10-17T05:17:07.570Z,36.52
2016-10-17T05:18:07.627Z,36.42
2016-10-17T05:19:07.895Z,36.42
2016-10-17T05:20:07.902Z,36.4
2016-10-17T05:21:08.209Z,36.52
2016-10-17T05:22:07.979Z,36.52
2016-10-17T05:23:07.921Z,36.42
2016-10-17T05:24:07.617Z,36.61
2016-10-17T05:25:07.669Z,36.42
2016-10-17T05:26:07.941Z,36.42
2016-10-17T05:27:07.684Z,36.42
2016-10-17T05:28:07.954Z,36.42
2016-10-17T05:29:07.649Z,36.52
2016-10-17T05:30:07.712Z,36.61
2016-10-17T05:31:07.711Z,36.32
2016-10-17T05:32:07.668Z,36.42
2016-10-17T05:33:07.676Z,36.42
2016-10-17T05:34:07.995Z,36.42
2016-10-17T05:35:07.685Z,36.42
2016-10-17T05:36:07.695Z,36.8
2016-10-17T05:37:08.010Z,36.42
2016-10-17T05:38:08.019Z,36.42
2016-10-17T05:39:08.026Z,36.42
2016-10-17T05:40:08.042Z,36.42
2016-10-17T05:41:07.724Z,36.42
2016-10-17T05:42:07.732Z,36.42
2016-10-17T05:43:08.049Z,36.42
2016-10-17T05:44:08.058Z,36.52
2016-10-17T05:45:07.801Z,36.52
2016-10-17T05:46:08.070Z,36.52
2016-10-17T05:47:08.078Z,36.52
2016-10-17T05:48:08.086Z,36.42
2016-10-17T05:49:08.089Z,36.52
2016-10-17T05:50:08.197Z,36.32
2016-10-17T05:51:07.843Z,36.42
2016-10-17T05:52:08.109Z,36.42
2016-10-17T05:53:07.804Z,36.42
2016-10-17T05:54:08.172Z,36.52
2016-10-17T05:55:08.128Z,36.42
2016-10-17T05:56:08.133Z,36.42
2016-10-17T05:57:08.141Z,36.42
2016-10-17T05:58:08.147Z,36.32
2016-10-17T05:59:08.157Z,36.32
2016-10-17T06:00:08.259Z,36.52
2016-10-17T06:01:08.167Z,36.32
2016-10-17T06:02:08.174Z,36.42
2016-10-17T06:03:08.179Z,36.32
2016-10-17T06:04:07.885Z,36.32
2016-10-17T06:05:08.244Z,36.42
2016-10-17T06:06:07.887Z,36.52
2016-10-17T06:07:08.254Z,36.42
2016-10-17T06:08:07.897Z,36.52
2016-10-17T06:09:08.267Z,36.32
2016-10-17T06:10:07.912Z,36.61
2016-10-17T06:11:08.228Z,36.42
2016-10-17T06:12:07.922Z,36.32
2016-10-17T06:13:08.229Z,36.42
2016-10-17T06:14:08.248Z,36.52
2016-10-17T06:15:08.260Z,36.42
2016-10-17T06:16:08.320Z,36.42
2016-10-17T06:17:07.961Z,36.42
2016-10-17T06:18:08.276Z,36.52
2016-10-17T06:19:07.968Z,36.32
2016-10-17T06:20:07.976Z,36.42
2016-10-17T06:21:08.345Z,36.42
2016-10-17T06:22:08.406Z,36.32
2016-10-17T06:23:07.994Z,36.61
2016-10-17T06:24:08.315Z,36.52
2016-10-17T06:25:08.371Z,36.42
2016-10-17T06:26:08.375Z,36.42
2016-10-17T06:27:08.332Z,36.52
2016-10-17T06:28:08.027Z,36.42
2016-10-17T06:29:08.344Z,36.42
2016-10-17T06:30:08.402Z,36.61
2016-10-17T06:31:08.359Z,36.61
2016-10-17T06:32:08.053Z,36.32
2016-10-17T06:33:08.370Z,36.52
2016-10-17T06:34:08.379Z,36.42
2016-10-17T06:35:08.073Z,36.52
2016-10-17T06:36:08.388Z,36.52
2016-10-17T06:37:08.396Z,36.52
2016-10-17T06:38:08.402Z,36.61
2016-10-17T06:39:08.097Z,36.61
2016-10-17T06:40:08.417Z,36.52
2016-10-17T06:41:08.158Z,36.52
2016-10-17T06:42:08.431Z,36.32
2016-10-17T06:43:08.435Z,36.32
2016-10-17T06:44:08.132Z,36.42
2016-10-17T06:45:08.451Z,36.42
2016-10-17T06:46:08.508Z,36.52
2016-10-17T06:47:08.152Z,36.42
2016-10-17T06:48:08.157Z,36.42
2016-10-17T06:49:08.212Z,36.52
2016-10-17T06:50:08.532Z,36.52
2016-10-17T06:51:08.486Z,36.52
2016-10-17T06:52:08.181Z,36.42
2016-10-17T06:53:08.187Z,36.52
2016-10-17T06:54:08.506Z,36.61
2016-10-17T06:55:08.514Z,36.52
2016-10-17T06:56:08.208Z,36.22
2016-10-17T06:57:08.532Z,36.52
2016-10-17T06:58:08.278Z,36.52
2016-10-17T06:59:08.540Z,36.32
2016-10-17T07:00:08.232Z,37
2016-10-17T07:01:08.553Z,36.8
2016-10-17T07:02:08.249Z,36.9
2016-10-17T07:03:08.564Z,37.1
2016-10-17T07:04:08.261Z,36.8
2016-10-17T07:05:08.578Z,36.61
2016-10-17T07:06:08.637Z,37.19
2016-10-17T07:07:08.593Z,37.38
2016-10-17T07:08:08.600Z,37.67
2016-10-17T07:09:08.607Z,37.58
2016-10-17T07:10:08.612Z,37.77
2016-10-17T07:11:08.617Z,37.67
2016-10-17T07:12:08.677Z,37.77
2016-10-17T07:13:08.713Z,37.87
2016-10-17T07:14:08.639Z,37.87
2016-10-17T07:15:08.334Z,37.87
2016-10-17T07:16:08.653Z,38.25
2016-10-17T07:17:08.343Z,37.87
2016-10-17T07:18:08.665Z,37.87
2016-10-17T07:19:08.670Z,37.96
2016-10-17T07:20:08.774Z,38.25
2016-10-17T07:21:08.370Z,38.25
2016-10-17T07:22:08.375Z,38.16
2016-10-17T07:23:08.387Z,37.96
2016-10-17T07:24:08.391Z,38.25
2016-10-17T07:25:08.712Z,38.16
2016-10-17T07:26:08.405Z,37.96
2016-10-17T07:27:08.722Z,37.67
2016-10-17T07:28:08.419Z,37.67
2016-10-17T07:29:08.735Z,37.4
2016-10-17T07:30:08.796Z,36.92
2016-10-17T07:31:08.438Z,36.82
2016-10-17T07:32:08.760Z,36.55
2016-10-17T07:33:08.452Z,36.36
2016-10-17T07:34:08.467Z,35.97
2016-10-17T07:35:08.464Z,36.18
2016-10-17T07:36:08.784Z,35.6
2016-10-17T07:37:08.796Z,35.6
2016-10-17T07:38:08.798Z,35.12
2016-10-17T07:39:08.527Z,34.84
2016-10-17T07:40:08.548Z,34.84
2016-10-17T07:41:08.506Z,34.94
2016-10-17T07:42:08.874Z,34.55
2016-10-17T07:43:08.830Z,34.57
2016-10-17T07:44:08.839Z,33.89
2016-10-17T07:45:08.859Z,34.28
2016-10-17T07:46:08.851Z,33.91
2016-10-17T07:47:08.862Z,33.33
2016-10-17T07:48:08.554Z,33.33
2016-10-17T07:49:08.873Z,33.62
2016-10-17T07:50:09.128Z,33.42
2016-10-17T07:51:08.580Z,33.14
2016-10-17T07:52:08.893Z,33.44
2016-10-17T07:53:08.900Z,33.52
2016-10-17T07:54:08.594Z,33.14
2016-10-17T07:55:08.653Z,33.14
2016-10-17T07:56:08.606Z,33.15
2016-10-17T07:57:08.927Z,33.06
2016-10-17T07:58:08.934Z,32.67
2016-10-17T07:59:08.995Z,32.57
2016-10-17T08:01:08.701Z,32.68
2016-10-17T08:02:09.007Z,32.59
2016-10-17T08:03:08.971Z,32.49
2016-10-17T08:04:08.979Z,32.68
2016-10-17T08:05:08.675Z,32.49
2016-10-17T08:06:09.064Z,32.2
2016-10-17T08:07:09.052Z,32.12
2016-10-17T08:08:08.697Z,31.73
2016-10-17T08:09:09.018Z,31.92
2016-10-17T08:10:08.713Z,31.73
2016-10-17T08:11:09.034Z,31.55
2016-10-17T08:12:08.733Z,31.35
2016-10-17T08:13:08.736Z,31.55
2016-10-17T08:14:08.746Z,31.45
2016-10-17T08:15:09.066Z,31.55
2016-10-17T08:16:09.122Z,31.65
2016-10-17T08:17:09.083Z,31.74
2016-10-17T08:18:08.775Z,31.55
2016-10-17T08:19:08.785Z,31.45
2016-10-17T08:20:09.206Z,31.35
2016-10-17T08:21:08.803Z,31.45
2016-10-17T08:22:08.861Z,31.55
2016-10-17T08:23:08.873Z,31.74
2016-10-17T08:24:09.190Z,31.84
2016-10-17T08:25:08.836Z,31.84
2016-10-17T08:26:08.845Z,31.94
2016-10-17T08:27:09.169Z,32.13
2016-10-17T08:28:09.174Z,32.13
2016-10-17T08:29:09.483Z,32.32
2016-10-17T08:30:08.878Z,32.31
2016-10-17T08:31:09.207Z,32.23
2016-10-17T08:32:08.948Z,32.41
2016-10-17T08:33:09.218Z,32.41
2016-10-17T08:34:09.226Z,32.32
2016-10-17T08:35:08.922Z,32.6
2016-10-17T08:36:08.935Z,32.79
2016-10-17T08:37:09.303Z,32.97
2016-10-17T08:38:08.950Z,33.17
2016-10-17T08:39:09.270Z,33.46
2016-10-17T08:40:09.214Z,33.75
2016-10-17T08:41:08.973Z,33.84
2016-10-17T08:42:09.345Z,33.26
2016-10-17T08:43:08.994Z,33.17
2016-10-17T08:44:09.310Z,33.07
2016-10-17T08:45:09.332Z,33.56
2016-10-17T08:46:09.362Z,33.46
2016-10-17T08:47:09.069Z,33.26
2016-10-17T08:48:09.391Z,32.97
2016-10-17T08:49:09.382Z,33.07
2016-10-17T08:50:09.081Z,32.78
2016-10-17T08:51:09.104Z,32.87
2016-10-17T08:52:09.373Z,33.26
2016-10-17T08:53:09.070Z,33.17
2016-10-17T08:54:09.391Z,33.07
2016-10-17T08:55:09.085Z,33.26
2016-10-17T08:56:09.111Z,33.36
2016-10-17T08:57:09.411Z,33.65
2016-10-17T08:58:09.724Z,33.54
2016-10-17T08:59:09.432Z,33.54
2016-10-17T09:00:09.441Z,33.54
2016-10-17T09:01:09.448Z,33.83
2016-10-17T09:02:09.504Z,33.64
2016-10-17T09:03:09.462Z,33.54
2016-10-17T09:04:09.470Z,33.73
2016-10-17T09:05:09.165Z,33.83
2016-10-17T09:06:09.535Z,33.44
2016-10-17T09:07:09.184Z,33.34
2016-10-17T09:08:09.504Z,33.73
2016-10-17T09:09:09.512Z,33.92
2016-10-17T09:10:09.515Z,33.92
2016-10-17T09:11:09.525Z,33.92
2016-10-17T09:12:09.751Z,33.83
2016-10-17T09:13:09.540Z,34.22
2016-10-17T09:14:09.600Z,33.73
2016-10-17T09:15:09.607Z,34.22
2016-10-17T09:16:09.301Z,34.22
2016-10-17T09:17:09.254Z,33.83
2016-10-17T09:18:09.626Z,33.64
2016-10-17T09:19:09.637Z,34.02
2016-10-17T09:20:09.594Z,33.36
2016-10-17T09:21:09.598Z,33.92
2016-10-17T09:22:09.608Z,33.92
2016-10-17T09:23:09.616Z,34.12
2016-10-17T09:24:09.623Z,33.83
2016-10-17T09:25:09.316Z,33.92
2016-10-17T09:26:09.637Z,33.83
2016-10-17T09:27:09.645Z,33.92
2016-10-17T09:28:09.656Z,33.92
2016-10-17T09:29:09.711Z,33.83
2016-10-17T09:30:09.668Z,33.92
2016-10-17T09:31:09.364Z,33.83
2016-10-17T09:32:09.371Z,33.92
2016-10-17T09:33:09.407Z,33.73
2016-10-17T09:34:09.699Z,33.83
2016-10-17T09:35:09.707Z,34.31
2016-10-17T09:36:09.761Z,33.44
2016-10-17T09:37:09.720Z,33.73
2016-10-17T09:38:09.728Z,33.73
2016-10-17T09:39:09.422Z,34.22
2016-10-17T09:40:09.741Z,33.92
2016-10-17T09:41:09.752Z,33.83
2016-10-17T09:42:09.493Z,34.23
2016-10-17T09:43:09.764Z,33.92
2016-10-17T09:44:09.458Z,34.31
2016-10-17T09:45:09.466Z,33.92
2016-10-17T09:46:09.787Z,34.12
2016-10-17T09:47:09.793Z,34.12
2016-10-17T09:48:09.490Z,34.22
2016-10-17T09:49:09.807Z,34.12
2016-10-17T09:50:09.555Z,34.12
2016-10-17T09:51:09.827Z,34.02
2016-10-17T09:52:09.830Z,34.12
2016-10-17T09:53:09.575Z,34.12
2016-10-17T09:54:09.533Z,34.22
2016-10-17T09:55:09.589Z,34.12
2016-10-17T09:56:09.564Z,34.12
2016-10-17T09:57:09.555Z,34.22
2016-10-17T09:58:09.875Z,34.41
2016-10-17T09:59:09.571Z,34.31
2016-10-17T10:00:09.578Z,33.83
2016-10-17T10:01:09.897Z,34.41
2016-10-17T10:02:09.903Z,34.51
2016-10-17T10:03:09.914Z,34.31
2016-10-17T10:04:09.919Z,34.31
2016-10-17T10:05:09.926Z,34.12
2016-10-17T10:06:09.673Z,34.02
2016-10-17T10:07:09.940Z,33.92
2016-10-17T10:08:09.636Z,34.41
2016-10-17T10:09:09.643Z,34.41
2016-10-17T10:10:09.690Z,34.02
2016-10-17T10:11:09.975Z,34.31
2016-10-17T10:12:09.976Z,34.31
2016-10-17T10:13:09.986Z,34.31
2016-10-17T10:14:09.697Z,33.83
2016-10-17T10:15:10.003Z,33.83
2016-10-17T10:16:10.007Z,34.02
2016-10-17T10:17:10.014Z,34.31
2016-10-17T10:18:09.708Z,33.83
2016-10-17T10:19:09.718Z,34.02
2016-10-17T10:20:09.776Z,34.31
2016-10-17T10:21:10.044Z,34.02
2016-10-17T10:22:09.759Z,34.01
2016-10-17T10:23:10.059Z,34.02
2016-10-17T10:24:10.068Z,34.02
2016-10-17T10:25:09.766Z,34.41
2016-10-17T10:26:10.079Z,34.51
2016-10-17T10:27:10.142Z,34.41
2016-10-17T10:28:10.096Z,34.02
2016-10-17T10:29:09.843Z,34.02
2016-10-17T10:30:09.799Z,34.3
2016-10-17T10:31:10.118Z,34.02
2016-10-17T10:32:10.227Z,34.59
2016-10-17T10:33:10.134Z,33.91
2016-10-17T10:34:10.191Z,33.91
2016-10-17T10:35:09.837Z,33.91
2016-10-17T10:36:10.156Z,34.2
2016-10-17T10:37:10.212Z,34.11
2016-10-17T10:38:10.218Z,34.22
2016-10-17T10:39:09.865Z,34.11
2016-10-17T10:40:10.239Z,34.01
2016-10-17T10:41:09.878Z,34.31
2016-10-17T10:42:09.887Z,34.01
2016-10-17T10:43:10.206Z,34.11
2016-10-17T10:44:10.213Z,34.49
2016-10-17T10:45:09.910Z,34.2
2016-10-17T10:46:10.227Z,34.2
2016-10-17T10:47:10.239Z,34.3
2016-10-17T10:48:10.243Z,34.3
2016-10-17T10:49:09.937Z,34.12
2016-10-17T10:50:10.063Z,34.2
2016-10-17T10:51:10.265Z,34.11
2016-10-17T10:52:09.956Z,34.2
2016-10-17T10:53:09.965Z,34.39
2016-10-17T10:54:09.974Z,34.2
2016-10-17T10:55:09.980Z,34.39
2016-10-17T10:56:09.988Z,34.3
2016-10-17T10:57:10.305Z,34.3
2016-10-17T10:58:10.003Z,34.31
2016-10-17T10:59:10.322Z,34.11
2016-10-17T11:00:10.016Z,34.3
2016-10-17T11:01:10.026Z,34.39
2016-10-17T11:02:10.345Z,34.3
2016-10-17T11:03:10.400Z,34.02
2016-10-17T11:04:10.359Z,34.39
2016-10-17T11:05:10.368Z,34.12
2016-10-17T11:06:10.373Z,34.02
2016-10-17T11:07:10.378Z,34.39
2016-10-17T11:08:10.071Z,34.11
2016-10-17T11:09:10.077Z,34.12
2016-10-17T11:10:10.186Z,34.01
2016-10-17T11:11:10.459Z,34.01
2016-10-17T11:12:10.412Z,33.72
2016-10-17T11:13:10.110Z,33.91
2016-10-17T11:15:10.437Z,33.83
2016-10-17T11:16:10.128Z,33.91
2016-10-17T11:17:10.451Z,34.22
2016-10-17T11:18:10.510Z,34.12
2016-10-17T11:19:10.152Z,34.22
2016-10-17T11:20:10.520Z,34.41
2016-10-17T11:21:10.163Z,34.12
2016-10-17T11:22:10.485Z,34.12
2016-10-17T11:23:10.178Z,33.54
2016-10-17T11:24:10.499Z,34.02
2016-10-17T11:25:10.503Z,34.22
2016-10-17T11:26:10.564Z,34.12
2016-10-17T11:27:10.207Z,34.22
2016-10-17T11:28:10.215Z,33.73
2016-10-17T11:29:10.533Z,33.83
2016-10-17T11:30:10.596Z,34.22
2016-10-17T11:31:10.237Z,34.12
2016-10-17T11:32:10.556Z,34.41
2016-10-17T11:33:10.612Z,33.64
2016-10-17T11:34:10.571Z,34.41
2016-10-17T11:35:10.268Z,34.22
2016-10-17T11:36:10.583Z,34.22
2016-10-17T11:37:10.590Z,34.2
2016-10-17T11:38:10.596Z,34.22
2016-10-17T11:39:10.605Z,33.72
2016-10-17T11:40:10.610Z,34.41
2016-10-17T11:41:10.306Z,33.54
2016-10-17T11:42:10.311Z,34.22
2016-10-17T11:43:10.322Z,34.12
2016-10-17T11:44:10.641Z,33.91
2016-10-17T11:45:10.648Z,34.2
2016-10-17T11:46:10.655Z,34.11
2016-10-17T11:47:10.711Z,34.49
2016-10-17T11:48:10.406Z,34.2
2016-10-17T11:49:10.366Z,33.73
2016-10-17T11:50:10.686Z,34.2
2016-10-17T11:51:10.740Z,34.2
2016-10-17T11:52:10.435Z,34.22
2016-10-17T11:53:10.391Z,34.2
2016-10-17T11:54:10.715Z,33.73
2016-10-17T11:55:10.408Z,34.49
2016-10-17T11:56:10.415Z,34.39
2016-10-17T11:57:10.734Z,34.51
2016-10-17T11:58:10.793Z,34.22
2016-10-17T11:59:10.747Z,34.3
2016-10-17T12:00:10.756Z,34.11
2016-10-17T12:01:10.763Z,33.62
2016-10-17T12:02:10.767Z,33.62
2016-10-17T12:03:10.776Z,33.62
2016-10-17T12:04:10.472Z,34.2
2016-10-17T12:05:10.843Z,34.2
2016-10-17T12:06:10.801Z,33.91
2016-10-17T12:07:10.804Z,33.72
2016-10-17T12:08:10.813Z,33.73
2016-10-17T12:09:10.507Z,33.81
2016-10-17T12:10:10.516Z,33.73
2016-10-17T12:11:10.521Z,33.73
2016-10-17T12:12:10.528Z,33.72
2016-10-17T12:13:10.847Z,33.83
2016-10-17T12:14:10.541Z,34.12
2016-10-17T12:15:10.549Z,34.22
2016-10-17T12:16:10.557Z,34.2
2016-10-17T12:17:11.126Z,34.12
2016-10-17T12:18:10.885Z,34.11
2016-10-17T12:19:10.583Z,33.72
2016-10-17T12:20:10.587Z,33.91
2016-10-17T12:21:10.913Z,33.72
2016-10-17T12:22:10.912Z,33.81
2016-10-17T12:23:11.020Z,33.92
2016-10-17T12:24:10.613Z,33.83
2016-10-17T12:25:10.938Z,33.72
2016-10-17T12:26:10.626Z,33.81
2016-10-17T12:27:10.684Z,33.81
2016-10-17T12:28:10.642Z,33.91
2016-10-17T12:29:11.093Z,33.81
2016-10-17T12:30:11.022Z,33.72
2016-10-17T12:31:10.714Z,33.81
2016-10-17T12:32:10.700Z,33.91
2016-10-17T12:33:10.682Z,33.91
2016-10-17T12:34:10.994Z,34.02
2016-10-17T12:35:10.691Z,34.02
2016-10-17T12:36:10.700Z,34.12
2016-10-17T12:37:11.017Z,34.02
2016-10-17T12:38:10.711Z,34.02
2016-10-17T12:39:10.719Z,34.02
2016-10-17T12:40:10.976Z,34.22
2016-10-17T12:41:10.734Z,33.92
2016-10-17T12:42:11.052Z,33.73
2016-10-17T12:43:10.749Z,34.02
2016-10-17T12:44:10.755Z,33.91
2016-10-17T12:45:11.073Z,33.92
2016-10-17T12:46:10.769Z,33.81
2016-10-17T12:47:11.144Z,33.83
2016-10-17T12:48:10.781Z,33.83
2016-10-17T12:49:11.161Z,34.02
2016-10-17T12:50:10.796Z,33.92
2016-10-17T12:51:11.117Z,34.02
2016-10-17T12:52:11.224Z,33.83
2016-10-17T12:53:11.131Z,34.02
2016-10-17T12:54:11.139Z,34.02
2016-10-17T12:55:11.149Z,34.02
2016-10-17T12:56:11.153Z,33.92
2016-10-17T12:57:11.261Z,34.02
2016-10-17T12:58:10.854Z,33.92
2016-10-17T12:59:11.225Z,33.83